createdAt,value
2022-10-05T00:01:34.688Z,70.00
2022-10-05T00:04:19.005Z,69.97
2022-10-05T00:06:55.949Z,70.21
2022-10-05T00:09:24.047Z,70.04
2022-10-05T00:11:51.841Z,69.92
2022-10-05T00:14:30.075Z,70.19
2022-10-05T00:16:58.089Z,70.21
2022-10-05T00:19:37.360Z,70.00
2022-10-05T00:22:17.486Z,70.05
2022-10-05T00:24:46.526Z,70.06
2022-10-05T00:27:26.017Z,70.35
2022-10-05T00:29:58.973Z,70.40
2022-10-05T00:32:27.406Z,70.08
2022-10-05T00:34:55.057Z,69.70
2022-10-05T00:37:22.577Z,69.78
2022-10-05T00:39:50.135Z,69.78
2022-10-05T00:42:45.952Z,69.82
2022-10-05T00:45:16.352Z,69.60
2022-10-05T00:47:49.967Z,69.97
2022-10-05T00:50:25.637Z,69.71
2022-10-05T00:53:10.604Z,69.72
2022-10-05T00:56:04.518Z,69.94
2022-10-05T00:59:11.158Z,69.74
2022-10-05T01:01:38.863Z,69.74
2022-10-05T01:04:29.335Z,70.05
2022-10-05T01:07:00.322Z,69.95
2022-10-05T01:09:37.162Z,70.02
2022-10-05T01:12:23.174Z,70.19
2022-10-05T01:15:08.765Z,70.24
2022-10-05T01:17:45.057Z,70.41
2022-10-05T01:20:15.604Z,70.23
2022-10-05T01:23:24.669Z,70.11
2022-10-05T01:26:16.362Z,70.19
2022-10-05T01:29:22.897Z,70.55
2022-10-05T01:32:02.154Z,70.57
2022-10-05T01:34:32.420Z,70.65
2022-10-05T01:37:27.597Z,70.55
2022-10-05T01:39:59.276Z,70.35
2022-10-05T01:42:26.747Z,70.28
2022-10-05T01:45:02.530Z,71.05
2022-10-05T01:47:42.950Z,70.60
2022-10-05T01:50:19.248Z,71.22
2022-10-05T01:53:04.819Z,71.54
2022-10-05T01:56:02.631Z,71.33
2022-10-05T01:58:39.243Z,70.71
2022-10-05T02:01:25.490Z,71.26
2022-10-05T02:04:04.515Z,71.42
2022-10-05T02:06:39.090Z,71.43
2022-10-05T02:09:15.365Z,71.66
2022-10-05T02:11:47.712Z,71.32
2022-10-05T02:14:23.932Z,71.84
2022-10-05T02:16:56.360Z,71.57
2022-10-05T02:19:29.942Z,71.59
2022-10-05T02:22:26.999Z,71.84
2022-10-05T02:25:03.202Z,71.66
2022-10-05T02:27:40.936Z,71.43
2022-10-05T02:30:28.922Z,71.82
2022-10-05T02:33:01.450Z,71.80
2022-10-05T02:35:29.075Z,72.09
2022-10-05T02:38:27.129Z,72.69
2022-10-05T02:50:34.609Z,72.69
2022-10-05T02:53:14.805Z,72.57
2022-10-05T02:56:00.480Z,72.47
2022-10-05T02:58:37.936Z,72.50
2022-10-05T03:01:30.984Z,72.04
2022-10-05T03:03:58.348Z,71.56
2022-10-05T03:06:38.850Z,72.03
2022-10-05T03:09:09.365Z,72.09
2022-10-05T03:11:54.137Z,72.52
2022-10-05T03:14:40.666Z,72.71
2022-10-05T03:17:30.023Z,72.75
2022-10-05T03:19:57.628Z,72.44
2022-10-05T03:22:47.043Z,72.79
2022-10-05T03:25:42.246Z,73.22
2022-10-05T03:28:27.067Z,73.09
2022-10-05T03:31:03.125Z,72.71
2022-10-05T03:33:53.052Z,72.78
2022-10-05T03:36:20.725Z,72.48
2022-10-05T03:39:12.169Z,73.21
2022-10-05T03:41:49.209Z,72.72
2022-10-05T03:44:19.969Z,72.54
2022-10-05T03:47:08.979Z,72.68
2022-10-05T03:49:58.347Z,72.81
2022-10-05T03:52:35.983Z,72.62
2022-10-05T03:55:30.468Z,72.67
2022-10-05T03:58:06.460Z,72.60
2022-10-05T04:00:35.721Z,72.67
2022-10-05T04:03:34.619Z,72.31
2022-10-05T04:06:11.474Z,71.95
2022-10-05T04:09:14.300Z,71.89
2022-10-05T04:12:23.729Z,72.28
2022-10-05T04:14:57.212Z,72.38
2022-10-05T04:17:42.803Z,72.60
2022-10-05T04:20:27.210Z,72.68
2022-10-05T04:23:09.843Z,72.56
2022-10-05T04:25:46.400Z,72.91
2022-10-05T04:28:38.874Z,72.90
2022-10-05T04:31:11.676Z,72.10
2022-10-05T04:33:39.390Z,72.29
2022-10-05T04:36:27.886Z,72.34
2022-10-05T04:39:07.578Z,72.15
2022-10-05T04:41:43.322Z,71.70
2022-10-05T04:44:41.500Z,71.89
2022-10-05T04:47:37.010Z,72.78
2022-10-05T04:50:40.102Z,72.12
2022-10-05T04:53:33.677Z,71.47
2022-10-05T04:56:40.049Z,71.90
2022-10-05T04:59:45.435Z,72.11
2022-10-05T05:02:22.094Z,71.82
2022-10-05T05:04:59.732Z,71.87
2022-10-05T05:08:15.296Z,72.23
2022-10-05T05:10:43.390Z,71.45
2022-10-05T05:14:01.821Z,71.46
2022-10-05T05:16:42.630Z,71.28
2022-10-05T05:19:41.324Z,71.23
2022-10-05T05:22:45.643Z,71.42
2022-10-05T05:25:34.801Z,71.09
2022-10-05T05:28:56.338Z,71.36
2022-10-05T05:31:43.892Z,70.75
2022-10-05T05:34:26.714Z,70.06
2022-10-05T05:37:06.659Z,70.42
2022-10-05T05:39:45.772Z,70.65
2022-10-05T05:42:20.801Z,70.59
2022-10-05T05:44:52.180Z,70.76
2022-10-05T05:47:35.535Z,71.04
2022-10-05T05:50:30.531Z,70.93
2022-10-05T05:53:06.523Z,71.04
2022-10-05T05:55:43.460Z,71.05
2022-10-05T05:58:37.388Z,70.48
2022-10-05T06:01:44.308Z,70.48
2022-10-05T06:04:26.847Z,70.51
2022-10-05T06:06:57.184Z,69.91
2022-10-05T06:09:39.435Z,69.87
2022-10-05T06:12:42.006Z,69.82
2022-10-05T06:15:35.166Z,69.59
2022-10-05T06:18:11.060Z,69.82
2022-10-05T06:21:01.818Z,70.56
2022-10-05T06:23:39.252Z,70.67
2022-10-05T06:26:18.137Z,71.05
2022-10-05T06:28:52.704Z,70.93
2022-10-05T06:31:54.206Z,70.84
2022-10-05T06:34:39.757Z,70.28
2022-10-05T06:37:25.362Z,69.68
2022-10-05T06:40:08.110Z,69.66
2022-10-05T06:42:56.930Z,68.73
2022-10-05T06:46:14.807Z,68.34
2022-10-05T06:49:54.892Z,67.45
2022-10-05T06:53:36.030Z,66.99
2022-10-05T06:56:29.430Z,65.87
2022-10-05T06:59:03.979Z,65.74
2022-10-05T07:01:34.980Z,65.24
2022-10-05T07:04:46.497Z,65.27
2022-10-05T07:07:35.372Z,65.26
2022-10-05T07:10:22.650Z,64.67
2022-10-05T07:12:56.565Z,65.57
2022-10-05T07:15:41.654Z,64.89
2022-10-05T07:18:25.568Z,64.99
2022-10-05T07:21:19.093Z,64.23
2022-10-05T07:24:23.486Z,64.74
2022-10-05T07:27:02.253Z,64.97
2022-10-05T07:29:51.730Z,64.95
2022-10-05T07:32:22.514Z,65.30
2022-10-05T07:35:41.877Z,65.23
2022-10-05T07:38:37.892Z,64.93
2022-10-05T07:41:28.235Z,64.52
2022-10-05T07:44:02.527Z,64.37
2022-10-05T07:46:41.157Z,64.10
2022-10-05T07:49:37.834Z,64.43
2022-10-05T07:52:14.077Z,64.65
2022-10-05T07:54:46.655Z,64.88
2022-10-05T07:57:27.167Z,64.90
2022-10-05T08:00:14.658Z,64.56
2022-10-05T08:03:29.830Z,64.41
2022-10-05T08:06:00.418Z,64.37
2022-10-05T08:08:42.981Z,64.53
2022-10-05T08:11:43.539Z,64.90
2022-10-05T08:14:24.601Z,65.49
2022-10-05T08:16:58.433Z,66.00
2022-10-05T08:19:49.038Z,66.57
2022-10-05T08:22:25.390Z,66.25
2022-10-05T08:25:00.994Z,66.57
2022-10-05T08:27:52.765Z,66.65
2022-10-05T08:30:20.549Z,65.96
2022-10-05T08:33:20.596Z,66.49
2022-10-05T08:36:12.599Z,66.69
2022-10-05T08:38:42.170Z,66.33
2022-10-05T08:41:40.944Z,66.10
2022-10-05T08:44:33.481Z,66.21
2022-10-05T08:47:03.216Z,66.39
2022-10-05T08:49:52.321Z,66.81
2022-10-05T08:52:41.907Z,67.16
2022-10-05T08:55:10.880Z,66.96
2022-10-05T08:57:50.293Z,67.30
2022-10-05T09:00:19.785Z,68.01
2022-10-05T09:03:24.450Z,68.32
2022-10-05T09:06:29.452Z,67.94
2022-10-05T09:09:21.660Z,68.46
2022-10-05T09:12:20.481Z,68.55
2022-10-05T09:15:25.469Z,68.86
2022-10-05T09:18:19.649Z,68.79
2022-10-05T09:20:54.223Z,68.51
2022-10-05T09:23:37.332Z,68.10
2022-10-05T09:26:09.447Z,68.26
2022-10-05T09:28:49.011Z,67.23
2022-10-05T09:31:33.734Z,66.69
2022-10-05T09:34:31.373Z,65.61
2022-10-05T09:37:23.552Z,63.11
2022-10-05T09:40:20.394Z,58.60
2022-10-05T09:43:36.112Z,57.01
2022-10-05T09:46:40.421Z,57.56
2022-10-05T09:49:16.954Z,58.55
2022-10-05T09:51:53.618Z,59.57
2022-10-05T09:54:33.118Z,59.35
2022-10-05T09:57:37.503Z,58.33
2022-10-05T10:00:21.860Z,58.39
2022-10-05T10:02:55.423Z,58.71
2022-10-05T10:05:34.777Z,58.94
2022-10-05T10:08:29.724Z,60.24
2022-10-05T10:11:08.109Z,60.71
2022-10-05T10:14:09.534Z,60.96
2022-10-05T10:17:14.508Z,61.24
2022-10-05T10:19:42.026Z,61.71
2022-10-05T10:22:43.071Z,61.96
2022-10-05T10:25:31.880Z,62.33
2022-10-05T10:28:24.426Z,62.86
2022-10-05T10:31:29.736Z,62.72
2022-10-05T10:34:10.304Z,61.58
2022-10-05T10:37:19.259Z,59.38
2022-10-05T10:40:00.300Z,60.61
2022-10-05T10:42:39.607Z,46.36
2022-10-05T10:45:28.844Z,39.17
2022-10-05T10:48:27.052Z,37.78
2022-10-05T10:51:03.449Z,40.27
2022-10-05T10:54:07.628Z,39.83
2022-10-05T10:56:56.272Z,42.50
2022-10-05T11:00:01.040Z,45.07
2022-10-05T11:02:42.611Z,47.54
2022-10-05T11:05:42.258Z,49.25
2022-10-05T11:08:38.879Z,51.48
2022-10-05T11:11:27.408Z,52.32
2022-10-05T11:14:07.011Z,53.11
2022-10-05T11:17:08.364Z,54.30
2022-10-05T11:20:04.737Z,54.57
2022-10-05T11:22:51.930Z,54.92
2022-10-05T11:25:46.810Z,54.02
2022-10-05T11:28:37.881Z,54.17
2022-10-05T11:31:30.330Z,53.49
2022-10-05T11:33:57.959Z,51.03
2022-10-05T11:36:56.564Z,48.27
2022-10-05T11:39:37.150Z,48.22
2022-10-05T11:42:34.364Z,49.12
2022-10-05T11:45:22.030Z,50.23
2022-10-05T11:48:04.681Z,49.50
2022-10-05T11:50:41.259Z,51.24
2022-10-05T11:53:27.244Z,46.94
2022-10-05T11:56:22.083Z,45.10
2022-10-05T11:58:54.272Z,44.61
2022-10-05T12:01:44.098Z,46.05
2022-10-05T12:04:23.723Z,48.36
2022-10-05T12:07:24.289Z,50.36
2022-10-05T12:10:31.676Z,52.83
2022-10-05T12:13:12.461Z,53.66
2022-10-05T12:16:03.965Z,55.35
2022-10-05T12:18:34.669Z,55.21
2022-10-05T12:21:25.271Z,55.74
2022-10-05T12:23:58.473Z,55.54
2022-10-05T12:26:31.925Z,55.74
2022-10-05T12:29:14.330Z,56.26
2022-10-05T12:32:03.889Z,56.67
2022-10-05T12:34:43.780Z,58.41
2022-10-05T12:37:32.725Z,58.55
2022-10-05T12:40:06.397Z,59.10
2022-10-05T12:42:46.519Z,59.58
2022-10-05T12:45:21.891Z,59.22
2022-10-05T12:48:14.479Z,60.20
2022-10-05T12:50:48.510Z,59.87
2022-10-05T12:53:55.564Z,61.11
2022-10-05T12:56:41.470Z,61.40
2022-10-05T12:59:21.351Z,61.75
2022-10-05T13:01:53.069Z,61.52
2022-10-05T13:04:27.083Z,61.17
2022-10-05T13:07:19.859Z,62.04
2022-10-05T13:09:59.968Z,61.64
2022-10-05T13:12:41.365Z,62.26
2022-10-05T13:15:21.504Z,62.33
2022-10-05T13:18:18.970Z,61.77
2022-10-05T13:20:52.450Z,61.59
2022-10-05T13:23:57.536Z,61.95
2022-10-05T13:26:40.871Z,62.45
2022-10-05T13:29:27.524Z,62.72
2022-10-05T13:32:06.910Z,62.97
2022-10-05T13:35:00.523Z,63.57
2022-10-05T13:37:40.275Z,63.46
2022-10-05T13:40:13.248Z,63.13
2022-10-05T13:42:50.755Z,63.69
2022-10-05T13:45:26.739Z,63.76
2022-10-05T13:48:00.354Z,63.44
2022-10-05T13:50:35.250Z,64.01
2022-10-05T13:53:26.644Z,64.51
2022-10-05T13:56:07.688Z,64.86
2022-10-05T13:58:41.872Z,64.49
2022-10-05T14:01:19.371Z,65.09
2022-10-05T14:04:16.654Z,65.46
2022-10-05T14:06:45.288Z,64.87
2022-10-05T14:09:21.274Z,65.27
2022-10-05T14:11:51.874Z,65.22
2022-10-05T14:14:30.791Z,64.90
2022-10-05T14:19:49.245Z,64.19
2022-10-05T14:22:24.064Z,64.55
2022-10-05T14:24:52.781Z,64.69
2022-10-05T14:27:24.994Z,64.72
2022-10-05T14:30:15.889Z,65.43
2022-10-05T14:32:51.930Z,65.47
2022-10-05T14:35:26.155Z,65.10
2022-10-05T14:37:56.847Z,65.31
2022-10-05T14:40:32.692Z,65.31
2022-10-05T14:43:15.767Z,65.48
2022-10-05T14:46:03.341Z,66.33
2022-10-05T14:48:43.626Z,66.28
2022-10-05T14:51:25.108Z,66.06
2022-10-05T14:54:18.223Z,66.75
2022-10-05T14:57:14.780Z,67.26
2022-10-05T14:59:56.888Z,66.97
2022-10-05T15:03:05.279Z,67.61
2022-10-05T15:05:37.793Z,66.93
2022-10-05T15:08:33.897Z,67.67
2022-10-05T15:11:29.367Z,67.82
2022-10-05T15:13:59.667Z,67.03
2022-10-05T15:16:33.912Z,67.84
2022-10-05T15:19:12.601Z,68.09
2022-10-05T15:22:11.657Z,67.58
2022-10-05T15:24:52.926Z,66.76
2022-10-05T15:27:45.097Z,66.28
2022-10-05T15:30:18.889Z,66.07
2022-10-05T15:33:09.870Z,66.23
2022-10-05T15:36:04.302Z,65.79
2022-10-05T15:38:54.182Z,65.99
2022-10-05T15:41:41.106Z,66.15
2022-10-05T15:44:21.096Z,65.90
2022-10-05T15:47:03.298Z,65.69
2022-10-05T15:49:47.571Z,66.24
2022-10-05T15:52:18.380Z,66.14
2022-10-05T15:55:18.569Z,66.88
2022-10-05T15:58:12.339Z,67.05
2022-10-05T16:00:48.267Z,66.82
2022-10-05T16:03:29.305Z,67.18
2022-10-05T16:06:28.146Z,67.38
2022-10-05T16:09:25.368Z,67.49
2022-10-05T16:12:15.237Z,67.13
2022-10-05T16:15:16.896Z,67.36
2022-10-05T16:18:04.345Z,67.18
2022-10-05T16:20:38.744Z,67.18
2022-10-05T16:23:28.320Z,67.19
2022-10-05T16:26:15.286Z,66.85
2022-10-05T16:28:57.165Z,66.59
2022-10-05T16:31:59.830Z,66.90
2022-10-05T16:34:52.446Z,66.95
2022-10-05T16:37:59.887Z,66.91
2022-10-05T16:41:14.431Z,67.22
2022-10-05T16:43:56.683Z,66.84
2022-10-05T16:46:37.566Z,66.88
2022-10-05T16:49:27.225Z,67.34
2022-10-05T16:52:05.876Z,67.41
2022-10-05T16:54:46.856Z,67.78
2022-10-05T16:57:38.968Z,67.36
2022-10-05T17:00:24.434Z,67.46
2022-10-05T17:03:27.717Z,67.31
2022-10-05T17:06:32.626Z,67.13
2022-10-05T17:09:07.327Z,67.20
2022-10-05T17:11:51.921Z,67.03
2022-10-05T17:14:20.479Z,67.12
2022-10-05T17:17:09.773Z,67.39
2022-10-05T17:19:53.633Z,67.24
2022-10-05T17:22:29.668Z,67.16
2022-10-05T17:25:34.344Z,67.31
2022-10-05T17:28:24.052Z,67.34
2022-10-05T17:31:17.323Z,66.81
2022-10-05T17:34:00.925Z,66.71
2022-10-05T17:36:43.760Z,66.55
2022-10-05T17:39:23.514Z,66.62
2022-10-05T17:41:51.746Z,66.51
2022-10-05T17:44:26.242Z,66.52
2022-10-05T17:47:05.186Z,66.71
2022-10-05T17:50:14.733Z,66.74
2022-10-05T17:53:03.930Z,66.44
2022-10-05T17:55:35.006Z,66.26
2022-10-05T17:58:24.867Z,66.32
2022-10-05T18:01:00.328Z,66.68
2022-10-05T18:03:53.035Z,66.72
2022-10-05T18:06:34.215Z,66.95
2022-10-05T18:09:23.730Z,67.16
2022-10-05T18:12:16.347Z,67.96
2022-10-05T18:15:06.092Z,68.08
2022-10-05T18:17:45.819Z,68.02
2022-10-05T18:20:27.745Z,68.22
2022-10-05T18:23:07.994Z,68.58
2022-10-05T18:26:06.190Z,68.66
2022-10-05T18:29:16.315Z,68.94
2022-10-05T18:31:59.912Z,68.76
2022-10-05T18:34:36.936Z,68.81
2022-10-05T18:37:23.913Z,68.79
2022-10-05T18:39:59.410Z,68.81
2022-10-05T18:42:43.618Z,69.67
2022-10-05T18:45:25.695Z,69.50
2022-10-05T18:48:24.129Z,70.13
2022-10-05T18:51:11.198Z,70.07
2022-10-05T18:53:47.798Z,69.91
2022-10-05T18:56:30.620Z,70.19
2022-10-05T18:59:10.561Z,70.62
2022-10-05T19:01:54.097Z,70.64
2022-10-05T19:04:28.484Z,70.70
2022-10-05T19:07:30.753Z,70.84
2022-10-05T19:10:35.250Z,70.98
2022-10-05T19:13:20.208Z,71.22
2022-10-05T19:16:35.743Z,71.65
2022-10-05T19:19:41.175Z,71.82
2022-10-05T19:22:24.457Z,71.73
2022-10-05T19:25:27.651Z,71.65
2022-10-05T19:28:22.697Z,71.32
2022-10-05T19:30:53.457Z,70.62
2022-10-05T19:33:32.031Z,70.80
2022-10-05T19:36:18.638Z,71.12
2022-10-05T19:39:16.435Z,70.75
2022-10-05T19:41:44.325Z,70.19
2022-10-05T19:44:16.863Z,70.50
2022-10-05T19:47:01.008Z,70.28
2022-10-05T19:49:57.239Z,70.35
2022-10-05T19:52:37.930Z,70.37
2022-10-05T19:55:25.095Z,70.56
2022-10-05T19:57:55.508Z,70.15
2022-10-05T20:00:31.411Z,70.23
2022-10-05T20:03:23.995Z,70.56
2022-10-05T20:05:53.204Z,70.17
2022-10-05T20:08:27.683Z,70.36
2022-10-05T20:11:22.982Z,70.79
2022-10-05T20:13:53.582Z,70.39
2022-10-05T20:16:53.185Z,70.83
2022-10-05T20:19:51.586Z,70.37
2022-10-05T20:22:41.025Z,70.88
2022-10-05T20:25:29.686Z,70.87
2022-10-05T20:27:57.897Z,70.24
2022-10-05T20:30:30.990Z,70.75
2022-10-05T20:33:04.676Z,70.45
2022-10-05T20:35:32.257Z,70.64
2022-10-05T20:38:00.444Z,70.60
2022-10-05T20:40:30.228Z,70.69
2022-10-05T20:42:58.962Z,71.11
2022-10-05T20:45:26.667Z,70.57
2022-10-05T20:47:54.279Z,71.12
2022-10-05T20:50:22.454Z,71.17
2022-10-05T20:52:50.089Z,71.44
2022-10-05T20:55:17.610Z,71.32
2022-10-05T20:57:46.297Z,71.57
2022-10-05T21:00:14.337Z,71.70
2022-10-05T21:02:41.805Z,71.90
2022-10-05T21:05:09.934Z,71.65
2022-10-05T21:07:37.635Z,71.73
2022-10-05T21:10:05.734Z,71.76
2022-10-05T21:12:34.769Z,71.80
2022-10-05T21:15:04.812Z,72.03
2022-10-05T21:17:34.802Z,71.90
2022-10-05T21:20:02.515Z,71.89
2022-10-05T21:22:30.546Z,71.92
2022-10-05T21:24:58.613Z,71.91
2022-10-05T21:27:26.200Z,71.98
2022-10-05T21:29:53.874Z,71.98
2022-10-05T21:32:21.382Z,71.96
2022-10-05T21:34:48.929Z,72.02
2022-10-05T21:37:16.685Z,72.27
2022-10-05T21:39:44.402Z,72.34
2022-10-05T21:42:11.877Z,72.43
2022-10-05T21:44:39.411Z,72.21
2022-10-05T21:47:07.173Z,72.47
2022-10-05T21:49:36.480Z,72.79
2022-10-05T21:52:05.590Z,72.56
2022-10-05T21:54:34.113Z,72.52
2022-10-05T21:57:02.407Z,72.91
2022-10-05T21:59:33.532Z,73.21
2022-10-05T22:02:02.473Z,73.01
2022-10-05T22:04:30.086Z,73.17
2022-10-05T22:06:57.859Z,73.39
2022-10-05T22:09:25.530Z,73.31
2022-10-05T22:11:53.335Z,73.43
2022-10-05T22:14:21.196Z,73.70
2022-10-05T22:16:48.909Z,73.77
2022-10-05T22:19:19.434Z,74.10
2022-10-05T22:21:47.397Z,73.90
2022-10-05T22:24:14.874Z,74.03
2022-10-05T22:26:46.007Z,74.16
2022-10-05T22:29:16.263Z,74.32
2022-10-05T22:31:48.679Z,74.51
2022-10-05T22:34:16.961Z,74.16
2022-10-05T22:36:44.634Z,74.41
2022-10-05T22:39:12.141Z,74.46
2022-10-05T22:41:39.763Z,74.49
2022-10-05T22:44:07.434Z,74.46
2022-10-05T22:46:35.527Z,74.52
2022-10-05T22:49:03.039Z,74.63
2022-10-05T22:51:30.696Z,74.54
2022-10-05T22:53:58.206Z,74.52
2022-10-05T22:56:25.791Z,74.53
2022-10-05T22:58:53.317Z,74.66
2022-10-05T23:04:05.584Z,74.61
2022-10-05T23:06:33.091Z,74.46
2022-10-05T23:09:00.708Z,74.55
2022-10-05T23:11:28.909Z,74.39
2022-10-05T23:13:57.422Z,74.54
2022-10-05T23:16:27.134Z,74.68
2022-10-05T23:18:55.493Z,74.68
2022-10-05T23:21:25.276Z,74.37
2022-10-05T23:23:52.865Z,74.39
2022-10-05T23:26:22.928Z,74.52
2022-10-05T23:28:51.135Z,74.33
2022-10-05T23:31:22.070Z,74.32
2022-10-05T23:33:49.931Z,74.27
2022-10-05T23:36:20.319Z,74.24
2022-10-05T23:38:48.527Z,74.18
2022-10-05T23:41:20.095Z,74.15
2022-10-05T23:43:47.953Z,74.31
2022-10-05T23:46:17.786Z,74.16
2022-10-05T23:48:45.419Z,74.23
2022-10-05T23:51:14.001Z,74.15
2022-10-05T23:53:41.673Z,73.99
2022-10-05T23:56:09.277Z,73.94
2022-10-05T23:58:36.888Z,73.88
